Time;durP1;ratioP1;P1;durP2;ratioP2;P2;SDS_P1;SDS_P2;PMS_P1;PMS_P2;Temp;Humidity;BMP_temperature;BMP_pressure;BME280_temperature;BME280_humidity;BME280_pressure;Samples;Min_cycle;Max_cycle;Signal;HPM_P1;HPM_P2
2023/08/23 00:00:08;;;;;;;14.60;5.20;;;20.40;99.90;;;;;;5080336;28;20435;-72
2023/08/23 00:02:54;;;;;;;9.10;5.90;;;20.20;99.90;;;;;;5073057;28;20432;-72
2023/08/23 00:05:39;;;;;;;7.00;5.83;;;20.30;99.90;;;;;;5082807;28;20452;-71
2023/08/23 00:08:26;;;;;;;11.60;5.97;;;20.30;99.90;;;;;;5081556;28;20524;-72
2023/08/23 00:11:12;;;;;;;6.00;4.70;;;20.20;99.90;;;;;;5084954;28;20486;-71
2023/08/23 00:13:58;;;;;;;6.83;5.40;;;20.30;99.90;;;;;;5080429;28;20543;-72
2023/08/23 00:16:43;;;;;;;11.13;5.33;;;20.30;99.90;;;;;;5086108;28;20520;-71
2023/08/23 00:19:29;;;;;;;8.77;4.80;;;20.30;99.90;;;;;;5079644;28;20438;-71
2023/08/23 00:22:15;;;;;;;6.30;4.73;;;20.40;99.90;;;;;;5082313;28;20461;-72
2023/08/23 00:25:02;;;;;;;7.50;5.80;;;20.30;99.90;;;;;;5081167;28;21054;-70
2023/08/23 00:27:48;;;;;;;11.33;4.97;;;20.20;99.90;;;;;;5083201;28;21274;-72
2023/08/23 00:30:33;;;;;;;13.27;5.20;;;20.20;99.90;;;;;;5081336;28;20543;-71
2023/08/23 00:33:19;;;;;;;9.13;5.33;;;20.10;99.90;;;;;;5081599;28;20469;-72
2023/08/23 00:36:05;;;;;;;7.20;5.47;;;20.10;99.90;;;;;;5082758;28;20473;-72
2023/08/23 00:38:50;;;;;;;5.50;5.00;;;20.10;99.90;;;;;;5077214;28;20438;-72
2023/08/23 00:41:38;;;;;;;6.90;5.47;;;20.00;99.90;;;;;;5082268;28;21127;-72
2023/08/23 00:44:24;;;;;;;7.00;6.30;;;20.00;99.90;;;;;;5080318;28;20962;-72
2023/08/23 00:47:09;;;;;;;7.70;4.90;;;20.10;99.90;;;;;;5079896;28;20465;-71
2023/08/23 00:49:57;;;;;;;7.73;5.20;;;20.10;99.90;;;;;;5083498;28;20456;-71
2023/08/23 00:52:42;;;;;;;12.07;5.10;;;20.10;99.90;;;;;;5082323;28;20463;-72
2023/08/23 00:55:28;;;;;;;11.50;5.47;;;20.20;99.90;;;;;;5075225;28;20434;-72
2023/08/23 00:58:16;;;;;;;12.30;5.00;;;20.00;99.90;;;;;;5080307;28;20905;-71
2023/08/23 01:01:02;;;;;;;10.00;5.20;;;19.90;99.90;;;;;;5080322;28;20444;-71
2023/08/23 01:03:50;;;;;;;8.67;5.20;;;19.80;99.90;;;;;;5073106;28;20436;-71
2023/08/23 01:06:52;;;;;;;9.03;5.47;;;19.70;99.90;;;;;;5080467;28;20449;-72
2023/08/23 01:09:48;;;;;;;8.37;5.40;;;19.70;99.90;;;;;;5076890;28;20484;-72
2023/08/23 01:12:41;;;;;;;6.67;5.70;;;19.60;99.90;;;;;;5081481;28;20462;-72
2023/08/23 01:15:30;;;;;;;7.70;5.70;;;19.60;99.90;;;;;;5081186;28;21058;-70
2023/08/23 01:18:17;;;;;;;5.97;5.40;;;19.60;99.90;;;;;;5082588;28;20450;-72
2023/08/23 01:21:07;;;;;;;12.30;6.17;;;19.60;99.90;;;;;;5081051;28;20442;-72
2023/08/23 01:23:55;;;;;;;6.90;5.63;;;19.60;99.90;;;;;;5074326;28;20472;-71
2023/08/23 01:26:41;;;;;;;6.10;5.40;;;19.60;99.90;;;;;;5081004;28;20527;-72
2023/08/23 01:29:26;;;;;;;5.60;5.10;;;19.60;99.90;;;;;;5077230;28;20470;-72
2023/08/23 01:32:32;;;;;;;9.70;5.60;;;19.70;99.90;;;;;;5080867;28;20512;-71
2023/08/23 01:35:20;;;;;;;6.80;4.83;;;19.60;99.90;;;;;;5074398;28;20550;-72
2023/08/23 01:38:08;;;;;;;8.00;5.70;;;19.70;99.90;;;;;;5079088;28;20441;-72
2023/08/23 01:40:55;;;;;;;7.90;5.40;;;19.80;99.90;;;;;;5082544;28;20575;-71
2023/08/23 01:43:41;;;;;;;8.07;6.27;;;19.70;99.90;;;;;;5080316;28;20546;-71
2023/08/23 01:46:26;;;;;;;8.93;5.77;;;19.70;99.90;;;;;;5077594;28;20432;-71
2023/08/23 01:49:12;;;;;;;8.20;5.50;;;19.60;99.90;;;;;;5079654;28;20411;-71
2023/08/23 01:51:58;;;;;;;11.00;5.27;;;19.50;99.90;;;;;;5084450;28;20965;-71
2023/08/23 01:54:43;;;;;;;6.87;5.37;;;19.50;99.90;;;;;;5078609;28;20930;-71
2023/08/23 01:57:30;;;;;;;7.00;5.57;;;19.60;99.90;;;;;;5085419;28;20441;-71
2023/08/23 02:00:16;;;;;;;7.93;5.50;;;19.50;99.90;;;;;;5080881;28;20802;-72
2023/08/23 02:03:02;;;;;;;12.03;6.00;;;19.50;99.90;;;;;;5082572;28;21004;-71
2023/08/23 02:05:48;;;;;;;6.83;6.13;;;19.50;99.90;;;;;;5081111;28;20449;-72
2023/08/23 02:08:35;;;;;;;9.30;5.70;;;19.50;99.90;;;;;;5076892;28;20441;-72
2023/08/23 02:11:20;;;;;;;14.23;6.33;;;19.50;99.90;;;;;;5074577;28;20575;-71
2023/08/23 02:14:07;;;;;;;9.23;5.70;;;19.50;99.90;;;;;;5075241;28;20413;-71
2023/08/23 02:16:53;;;;;;;11.20;6.60;;;19.60;99.90;;;;;;5079759;28;20846;-72
2023/08/23 02:19:38;;;;;;;8.67;6.07;;;19.60;99.90;;;;;;5079528;28;20433;-72
2023/08/23 02:22:24;;;;;;;11.60;5.90;;;19.70;99.90;;;;;;5082628;28;20550;-72
2023/08/23 02:25:10;;;;;;;6.83;5.33;;;19.80;99.90;;;;;;5080426;28;20463;-72
2023/08/23 02:27:57;;;;;;;7.57;5.30;;;19.70;99.90;;;;;;5076372;28;20803;-71
2023/08/23 02:30:45;;;;;;;8.00;4.83;;;19.70;99.90;;;;;;5080615;28;20453;-72
2023/08/23 02:33:30;;;;;;;13.07;6.00;;;19.70;99.90;;;;;;5077806;28;20469;-72
2023/08/23 02:36:16;;;;;;;7.80;5.90;;;19.60;99.90;;;;;;5081307;28;20453;-71
2023/08/23 02:39:02;;;;;;;9.30;6.17;;;19.40;99.90;;;;;;5079723;28;20449;-72
2023/08/23 02:41:48;;;;;;;16.90;5.90;;;19.20;99.90;;;;;;5078698;28;20543;-72
2023/08/23 02:44:34;;;;;;;8.70;6.07;;;19.00;99.90;;;;;;5078689;28;20420;-72
2023/08/23 02:47:21;;;;;;;6.47;5.10;;;19.10;99.90;;;;;;5080209;28;20575;-73
2023/08/23 02:50:07;;;;;;;7.60;5.30;;;19.30;99.90;;;;;;5083687;28;20473;-70
2023/08/23 02:52:52;;;;;;;9.07;5.67;;;19.20;99.90;;;;;;5079403;28;20468;-71
2023/08/23 02:55:38;;;;;;;8.63;4.60;;;19.20;99.90;;;;;;5076184;28;20423;-72
2023/08/23 02:58:24;;;;;;;11.30;6.00;;;19.30;99.90;;;;;;5076940;28;20847;-72
2023/08/23 03:01:09;;;;;;;8.33;5.77;;;19.40;99.90;;;;;;5079898;28;20441;-71
2023/08/23 03:03:56;;;;;;;18.20;5.90;;;19.40;99.90;;;;;;5081084;28;20443;-70
2023/08/23 03:06:42;;;;;;;6.63;5.90;;;19.30;99.90;;;;;;5075605;28;20435;-71
2023/08/23 03:09:28;;;;;;;10.60;5.57;;;19.20;99.90;;;;;;5074688;28;20809;-71
2023/08/23 03:12:14;;;;;;;6.90;5.60;;;18.90;99.90;;;;;;5074810;28;20502;-71
2023/08/23 03:14:59;;;;;;;6.80;5.50;;;18.80;99.90;;;;;;5077547;28;20441;-70
2023/08/23 03:17:45;;;;;;;8.53;6.03;;;18.80;99.90;;;;;;5077375;28;20461;-71
2023/08/23 03:20:32;;;;;;;6.63;5.30;;;18.80;99.90;;;;;;5081401;28;20574;-71
2023/08/23 03:23:18;;;;;;;11.63;6.30;;;19.00;99.90;;;;;;5083630;28;20473;-71
2023/08/23 03:26:03;;;;;;;8.40;5.27;;;19.00;99.90;;;;;;5084048;28;20416;-72
2023/08/23 03:28:49;;;;;;;8.60;6.10;;;19.00;99.90;;;;;;5081043;28;20449;-71
2023/08/23 03:31:35;;;;;;;9.73;5.70;;;19.00;99.90;;;;;;5082674;28;20465;-72
2023/08/23 03:34:20;;;;;;;8.60;5.77;;;19.10;99.90;;;;;;5074663;28;20461;-71
2023/08/23 03:37:07;;;;;;;10.47;5.33;;;19.20;99.90;;;;;;5077522;28;20449;-71
2023/08/23 03:39:53;;;;;;;9.93;6.23;;;19.30;99.90;;;;;;5079894;28;20985;-70
2023/08/23 03:42:38;;;;;;;9.67;5.93;;;19.30;99.90;;;;;;5084682;28;21210;-70
2023/08/23 03:45:24;;;;;;;11.07;6.13;;;19.30;99.90;;;;;;5079805;28;22392;-71
2023/08/23 03:48:10;;;;;;;8.10;5.40;;;19.30;99.90;;;;;;5077108;28;20419;-72
2023/08/23 03:50:59;;;;;;;6.90;5.23;;;19.30;99.90;;;;;;5083516;28;20472;-72
2023/08/23 03:53:45;;;;;;;9.77;5.33;;;19.10;99.90;;;;;;5075960;28;20470;-70
2023/08/23 03:56:31;;;;;;;7.33;6.10;;;18.90;99.90;;;;;;5081018;28;20483;-72
2023/08/23 03:59:17;;;;;;;6.73;5.90;;;18.80;99.90;;;;;;5080426;28;20468;-72
2023/08/23 04:02:03;;;;;;;6.33;5.27;;;18.80;99.90;;;;;;5078133;28;20824;-71
2023/08/23 04:04:49;;;;;;;16.40;5.53;;;19.00;99.90;;;;;;5079805;28;20440;-72
2023/08/23 04:07:34;;;;;;;8.10;6.10;;;19.00;99.90;;;;;;5082432;28;20963;-71
2023/08/23 04:10:21;;;;;;;7.80;6.33;;;19.10;99.90;;;;;;5080704;28;20476;-72
2023/08/23 04:13:07;;;;;;;6.87;5.70;;;19.10;99.90;;;;;;5078980;28;20439;-72
2023/08/23 04:15:53;;;;;;;9.13;6.07;;;19.10;99.90;;;;;;5083989;28;20653;-72
2023/08/23 04:18:38;;;;;;;9.93;6.20;;;19.10;99.90;;;;;;5080614;28;20961;-72
2023/08/23 04:21:25;;;;;;;8.77;5.73;;;19.10;99.90;;;;;;5079462;28;20429;-70
2023/08/23 04:24:10;;;;;;;7.77;5.90;;;19.00;99.90;;;;;;5082159;28;20415;-72
2023/08/23 04:26:57;;;;;;;9.70;5.70;;;18.90;99.90;;;;;;5076481;28;20758;-71
2023/08/23 04:29:43;;;;;;;8.53;5.63;;;18.80;99.90;;;;;;5081304;28;20453;-72
2023/08/23 04:32:29;;;;;;;7.70;6.43;;;18.70;99.90;;;;;;5080346;28;20824;-72
2023/08/23 04:35:15;;;;;;;7.97;6.60;;;18.50;99.90;;;;;;5079285;28;20448;-72
2023/08/23 04:38:00;;;;;;;11.30;6.47;;;18.60;99.90;;;;;;5084182;28;20526;-71
2023/08/23 04:40:46;;;;;;;8.27;6.13;;;18.60;99.90;;;;;;5077636;28;20440;-71
2023/08/23 04:43:33;;;;;;;9.03;5.93;;;18.60;99.90;;;;;;5080065;28;20815;-72
2023/08/23 04:46:19;;;;;;;11.77;6.60;;;18.70;99.90;;;;;;5077870;28;20445;-72
2023/08/23 04:49:05;;;;;;;8.87;6.20;;;18.80;99.90;;;;;;5077064;28;20579;-71
2023/08/23 04:51:51;;;;;;;7.80;6.10;;;18.70;99.90;;;;;;5078916;28;20461;-71
2023/08/23 04:54:36;;;;;;;10.70;6.30;;;18.70;99.90;;;;;;5080851;28;20420;-71
2023/08/23 04:57:22;;;;;;;7.10;5.53;;;18.80;99.90;;;;;;5078229;28;20458;-72
2023/08/23 05:00:11;;;;;;;11.50;5.67;;;18.90;99.90;;;;;;5079765;28;20419;-71
2023/08/23 05:02:57;;;;;;;9.30;5.90;;;18.90;99.90;;;;;;5075225;28;20990;-71
2023/08/23 05:05:43;;;;;;;6.37;5.77;;;19.00;99.90;;;;;;5080533;28;20432;-71
2023/08/23 05:08:29;;;;;;;8.80;5.47;;;19.00;99.90;;;;;;5078822;28;20452;-71
2023/08/23 05:11:15;;;;;;;9.33;6.43;;;19.10;99.90;;;;;;5079440;28;20945;-71
2023/08/23 05:14:01;;;;;;;11.13;6.17;;;19.20;99.90;;;;;;5078625;28;21040;-72
2023/08/23 05:16:48;;;;;;;7.03;5.63;;;19.20;99.90;;;;;;5076071;28;20933;-72
2023/08/23 05:19:33;;;;;;;8.00;6.30;;;19.30;99.90;;;;;;5083631;28;21272;-72
2023/08/23 05:22:19;;;;;;;7.40;6.27;;;19.30;99.90;;;;;;5079193;28;20460;-71
2023/08/23 05:25:05;;;;;;;11.63;5.63;;;19.40;99.90;;;;;;5081636;28;20829;-72
2023/08/23 05:27:50;;;;;;;6.93;5.73;;;19.40;99.90;;;;;;5079152;28;20537;-71
2023/08/23 05:30:40;;;;;;;8.60;7.00;;;19.50;99.90;;;;;;5081583;28;20563;-72
2023/08/23 05:33:27;;;;;;;8.80;6.90;;;19.50;99.90;;;;;;5078454;28;20479;-71
2023/08/23 05:36:12;;;;;;;6.70;5.37;;;19.50;99.90;;;;;;5075578;28;20460;-72
2023/08/23 05:39:04;;;;;;;7.90;5.20;;;19.60;99.90;;;;;;5082276;28;20498;-71
2023/08/23 05:41:49;;;;;;;7.43;6.40;;;19.60;99.90;;;;;;5080030;28;20954;-71
2023/08/23 05:44:35;;;;;;;8.37;5.50;;;19.70;99.90;;;;;;5081257;28;20829;-70
2023/08/23 05:47:21;;;;;;;16.03;6.43;;;19.70;99.90;;;;;;5082584;28;20446;-71
2023/08/23 05:50:09;;;;;;;10.37;6.53;;;19.70;99.90;;;;;;5080396;28;20443;-71
2023/08/23 05:52:55;;;;;;;7.03;6.33;;;19.70;99.90;;;;;;5079416;28;20544;-71
2023/08/23 05:55:40;;;;;;;7.00;5.90;;;19.60;99.90;;;;;;5078557;28;20555;-71
2023/08/23 05:58:26;;;;;;;8.37;6.00;;;19.70;99.90;;;;;;5078537;28;20522;-71
2023/08/23 06:01:12;;;;;;;10.43;6.70;;;19.80;99.90;;;;;;5080806;28;20849;-71
2023/08/23 06:03:57;;;;;;;10.20;6.87;;;19.80;99.90;;;;;;5080208;28;20528;-71
2023/08/23 06:06:44;;;;;;;7.80;6.97;;;19.70;99.90;;;;;;5078106;28;20446;-71
2023/08/23 06:09:32;;;;;;;7.80;6.97;;;19.80;99.90;;;;;;5080419;28;20474;-71
2023/08/23 06:12:19;;;;;;;10.83;6.47;;;19.80;99.90;;;;;;5081720;28;20645;-71
2023/08/23 06:15:06;;;;;;;8.77;6.50;;;19.90;99.90;;;;;;5077061;28;20450;-71
2023/08/23 06:17:53;;;;;;;7.23;6.10;;;20.00;99.90;;;;;;5079045;28;20487;-71
2023/08/23 06:20:39;;;;;;;8.50;7.23;;;20.10;99.90;;;;;;5076795;28;20548;-71
2023/08/23 06:23:25;;;;;;;8.23;7.40;;;20.20;99.90;;;;;;5076277;28;20945;-71
2023/08/23 06:26:11;;;;;;;7.97;6.90;;;20.30;99.90;;;;;;5081879;28;20943;-71
2023/08/23 06:28:57;;;;;;;8.53;6.70;;;20.40;99.90;;;;;;5075995;28;20483;-71
2023/08/23 06:31:42;;;;;;;11.70;7.90;;;20.50;99.90;;;;;;5080260;28;20566;-71
2023/08/23 06:34:28;;;;;;;9.63;8.03;;;20.60;99.90;;;;;;5075141;28;20475;-71
2023/08/23 06:37:14;;;;;;;15.43;7.93;;;20.60;99.90;;;;;;5079714;28;20441;-71
2023/08/23 06:40:02;;;;;;;7.87;7.07;;;20.70;99.90;;;;;;5078169;28;20427;-71
2023/08/23 06:42:48;;;;;;;7.67;6.80;;;20.80;99.90;;;;;;5072771;28;20482;-70
2023/08/23 06:45:34;;;;;;;8.57;7.00;;;20.80;99.90;;;;;;5080253;28;20523;-71
2023/08/23 06:48:19;;;;;;;9.37;7.03;;;20.90;99.90;;;;;;5077303;28;20437;-71
2023/08/23 06:51:05;;;;;;;7.93;7.13;;;21.00;99.90;;;;;;5071808;28;20444;-71
2023/08/23 06:53:51;;;;;;;12.27;6.90;;;21.20;99.90;;;;;;5081740;28;21057;-71
2023/08/23 06:56:39;;;;;;;7.33;6.00;;;21.30;99.90;;;;;;5076947;28;20438;-71
2023/08/23 06:59:24;;;;;;;7.37;6.47;;;21.40;99.90;;;;;;5078224;28;20431;-71
2023/08/23 07:02:10;;;;;;;18.10;7.27;;;21.50;99.90;;;;;;5080316;28;20482;-71
2023/08/23 07:04:56;;;;;;;9.60;6.90;;;21.60;99.90;;;;;;5080064;28;20438;-71
2023/08/23 07:07:42;;;;;;;8.10;6.70;;;21.60;99.90;;;;;;5084471;28;20457;-71
2023/08/23 07:10:27;;;;;;;8.77;6.10;;;21.70;99.90;;;;;;5074913;28;20440;-71
2023/08/23 07:13:14;;;;;;;9.00;6.40;;;21.70;99.90;;;;;;5078921;28;20444;-71
2023/08/23 07:15:59;;;;;;;11.00;7.10;;;21.90;99.90;;;;;;5088303;28;20447;-71
2023/08/23 07:18:45;;;;;;;11.40;6.30;;;22.00;99.90;;;;;;5081926;28;20528;-71
2023/08/23 07:21:31;;;;;;;9.67;6.23;;;22.10;99.90;;;;;;5075232;28;20467;-71
2023/08/23 07:24:16;;;;;;;9.40;6.13;;;22.10;99.90;;;;;;5071024;28;20444;-71
2023/08/23 07:27:02;;;;;;;11.00;6.03;;;22.20;99.90;;;;;;5073151;28;20442;-71
2023/08/23 07:29:49;;;;;;;9.07;5.90;;;22.30;99.90;;;;;;5075917;28;20596;-71
2023/08/23 07:32:35;;;;;;;9.43;5.87;;;22.40;99.90;;;;;;5072854;28;20461;-71
2023/08/23 07:35:21;;;;;;;28.33;7.03;;;22.60;99.90;;;;;;5077881;28;20528;-71
2023/08/23 07:38:06;;;;;;;13.53;5.70;;;22.60;99.90;;;;;;5075270;28;20971;-71
2023/08/23 07:40:58;;;;;;;7.90;5.50;;;22.70;99.90;;;;;;5084671;28;20454;-71
2023/08/23 07:43:43;;;;;;;12.93;5.17;;;22.80;99.90;;;;;;5077838;28;20474;-71
2023/08/23 07:46:30;;;;;;;10.17;5.40;;;22.90;99.90;;;;;;5071862;28;20457;-70
2023/08/23 07:49:16;;;;;;;6.53;4.83;;;23.00;99.90;;;;;;5075483;28;21092;-71
2023/08/23 07:52:02;;;;;;;8.13;5.40;;;23.00;99.90;;;;;;5076531;28;20462;-71
2023/08/23 07:54:47;;;;;;;8.17;6.00;;;23.10;99.90;;;;;;5079562;28;20514;-71
2023/08/23 07:57:33;;;;;;;8.60;4.97;;;23.20;99.90;;;;;;5084701;28;20521;-71
2023/08/23 08:00:20;;;;;;;7.73;4.63;;;23.30;99.90;;;;;;5088482;28;20438;-71
2023/08/23 08:03:07;;;;;;;7.23;4.50;;;23.30;99.90;;;;;;5083743;28;20474;-71
2023/08/23 08:05:53;;;;;;;8.43;5.47;;;23.40;99.90;;;;;;5082302;28;20447;-71
2023/08/23 08:08:42;;;;;;;7.07;4.60;;;23.50;99.90;;;;;;5089046;28;20509;-71
2023/08/23 08:11:28;;;;;;;8.17;4.67;;;23.50;99.90;;;;;;5087638;28;20502;-71
2023/08/23 08:14:14;;;;;;;10.33;4.43;;;23.70;99.90;;;;;;5080308;28;20454;-71
2023/08/23 08:16:59;;;;;;;7.03;4.60;;;23.70;99.90;;;;;;5087143;28;20573;-71
2023/08/23 08:19:46;;;;;;;6.80;4.77;;;23.80;99.90;;;;;;5077663;28;20927;-71
2023/08/23 08:22:32;;;;;;;6.70;4.73;;;23.90;99.90;;;;;;5082480;28;20835;-71
2023/08/23 08:25:18;;;;;;;6.63;4.73;;;24.00;99.90;;;;;;5077706;28;20630;-71
2023/08/23 08:28:04;;;;;;;7.00;4.67;;;24.10;99.90;;;;;;5086511;28;20455;-71
2023/08/23 08:30:50;;;;;;;7.27;5.20;;;24.20;99.90;;;;;;5076947;28;20787;-71
2023/08/23 08:33:35;;;;;;;7.30;4.80;;;24.30;99.90;;;;;;5082586;28;20538;-71
2023/08/23 08:36:22;;;;;;;11.60;4.83;;;24.40;99.90;;;;;;5083745;28;20831;-72
2023/08/23 08:39:08;;;;;;;5.90;4.27;;;24.50;99.90;;;;;;5082594;28;20448;-71
2023/08/23 08:41:55;;;;;;;4.90;4.30;;;24.50;99.90;;;;;;5085075;28;20521;-71
2023/08/23 08:44:41;;;;;;;7.33;4.13;;;24.60;99.90;;;;;;5073139;28;21019;-71
2023/08/23 08:47:27;;;;;;;4.67;4.17;;;24.70;99.90;;;;;;5082066;28;20441;-71
2023/08/23 08:50:12;;;;;;;8.93;4.60;;;24.80;99.90;;;;;;5081329;28;20449;-71
2023/08/23 08:53:01;;;;;;;11.53;4.40;;;25.00;99.90;;;;;;5083165;28;20917;-71
2023/08/23 08:55:47;;;;;;;7.27;4.00;;;25.00;99.90;;;;;;5077625;28;20460;-71
2023/08/23 08:58:33;;;;;;;6.30;4.30;;;25.10;99.90;;;;;;5082097;28;20588;-72
2023/08/23 09:01:20;;;;;;;7.23;4.80;;;25.20;99.90;;;;;;5080446;28;20442;-71
2023/08/23 09:04:07;;;;;;;5.83;4.07;;;25.30;99.90;;;;;;5078500;28;20603;-71
2023/08/23 09:06:54;;;;;;;7.63;4.33;;;25.40;99.90;;;;;;5079258;28;21070;-71
2023/08/23 09:09:41;;;;;;;6.93;4.27;;;25.40;99.90;;;;;;5080665;28;20441;-71
2023/08/23 09:12:27;;;;;;;7.20;4.60;;;25.50;99.60;;;;;;5082959;28;21046;-71
2023/08/23 09:15:12;;;;;;;6.80;4.87;;;25.50;99.90;;;;;;5074950;28;20452;-71
2023/08/23 09:17:59;;;;;;;10.67;4.87;;;25.70;99.90;;;;;;5086107;28;20916;-71
2023/08/23 09:20:45;;;;;;;6.77;4.40;;;25.80;98.30;;;;;;5078091;28;20521;-71
2023/08/23 09:23:35;;;;;;;7.37;4.47;;;25.80;94.50;;;;;;5082938;28;20571;-71
2023/08/23 09:26:22;;;;;;;5.33;4.27;;;25.90;96.10;;;;;;5074304;28;20456;-71
2023/08/23 09:29:08;;;;;;;6.73;3.90;;;26.00;93.40;;;;;;5080525;28;20812;-71
2023/08/23 09:31:54;;;;;;;8.67;4.60;;;26.00;92.70;;;;;;5083232;28;20492;-71
2023/08/23 09:34:39;;;;;;;7.00;3.70;;;26.10;93.80;;;;;;5076807;28;20921;-71
2023/08/23 09:37:28;;;;;;;6.20;4.40;;;26.20;91.60;;;;;;5079779;28;20445;-71
2023/08/23 09:40:18;;;;;;;6.40;3.73;;;26.30;92.60;;;;;;5081881;28;20449;-71
2023/08/23 09:43:06;;;;;;;11.97;4.10;;;26.40;92.50;;;;;;5079306;28;20480;-71
2023/08/23 09:45:52;;;;;;;6.40;4.17;;;26.40;90.10;;;;;;5080804;28;20599;-71
2023/08/23 09:48:38;;;;;;;9.80;4.57;;;26.50;90.20;;;;;;5075031;28;20446;-71
2023/08/23 09:51:25;;;;;;;6.63;3.90;;;26.50;78.00;;;;;;5086263;28;20672;-71
2023/08/23 09:54:15;;;;;;;5.93;4.10;;;26.40;80.70;;;;;;5079334;28;20438;-71
2023/08/23 09:57:00;;;;;;;4.57;3.87;;;26.50;86.00;;;;;;5081202;28;20495;-71
2023/08/23 09:59:48;;;;;;;5.97;3.67;;;26.50;86.30;;;;;;5082362;28;21036;-71
2023/08/23 10:02:34;;;;;;;8.07;4.27;;;26.60;75.10;;;;;;5078114;28;20637;-71
2023/08/23 10:05:21;;;;;;;4.93;4.00;;;26.50;73.30;;;;;;5080615;28;20947;-71
2023/08/23 10:08:08;;;;;;;6.00;3.93;;;26.60;81.10;;;;;;5080575;28;20958;-71
2023/08/23 10:10:54;;;;;;;6.10;4.10;;;26.70;79.40;;;;;;5080853;28;20467;-71
2023/08/23 10:13:41;;;;;;;8.37;3.70;;;26.80;76.20;;;;;;5085558;28;20655;-71
2023/08/23 10:16:28;;;;;;;13.73;4.27;;;26.90;71.70;;;;;;5074096;28;20907;-71
2023/08/23 10:19:14;;;;;;;9.53;4.43;;;26.90;73.50;;;;;;5072072;28;21001;-71
2023/08/23 10:22:00;;;;;;;7.27;4.13;;;26.80;76.00;;;;;;5076567;28;20523;-71
2023/08/23 10:24:47;;;;;;;6.40;4.53;;;26.80;79.80;;;;;;5077896;28;20466;-71
2023/08/23 10:27:35;;;;;;;7.73;4.60;;;26.70;76.30;;;;;;5082282;28;20934;-71
2023/08/23 10:30:25;;;;;;;9.93;4.07;;;26.80;77.70;;;;;;5081554;28;20443;-71
2023/08/23 10:33:15;;;;;;;11.30;5.07;;;26.80;78.60;;;;;;5074766;28;20464;-71
2023/08/23 10:36:00;;;;;;;6.10;4.10;;;26.90;76.50;;;;;;5085395;28;20583;-71
2023/08/23 10:38:48;;;;;;;8.50;4.27;;;27.00;77.70;;;;;;5081562;28;20447;-71
2023/08/23 10:41:33;;;;;;;5.73;3.77;;;27.10;75.50;;;;;;5073717;28;20434;-71
2023/08/23 10:44:20;;;;;;;8.00;4.40;;;27.10;72.30;;;;;;5079671;28;20509;-71
2023/08/23 10:47:08;;;;;;;7.90;4.73;;;27.20;71.10;;;;;;5081400;28;20446;-71
2023/08/23 10:49:56;;;;;;;7.87;4.40;;;27.10;62.60;;;;;;5081187;28;20856;-71
2023/08/23 10:52:42;;;;;;;8.03;4.87;;;26.90;60.10;;;;;;5082266;28;20453;-71
2023/08/23 10:55:28;;;;;;;9.03;4.90;;;27.00;67.10;;;;;;5081766;28;20448;-71
2023/08/23 10:58:14;;;;;;;7.30;4.83;;;27.00;62.40;;;;;;5076458;28;20834;-71
2023/08/23 11:00:59;;;;;;;7.40;4.37;;;27.00;60.20;;;;;;5084449;28;20443;-71
2023/08/23 11:03:45;;;;;;;10.33;4.10;;;27.10;62.30;;;;;;5079529;28;21004;-71
2023/08/23 11:06:33;;;;;;;5.57;4.20;;;27.10;57.30;;;;;;5084453;28;20907;-71
2023/08/23 11:09:19;;;;;;;12.67;4.90;;;27.20;55.70;;;;;;5080675;28;20483;-71
2023/08/23 11:12:06;;;;;;;6.70;5.03;;;27.30;55.10;;;;;;5078905;28;20565;-71
2023/08/23 11:14:51;;;;;;;6.27;4.67;;;27.20;56.20;;;;;;5085296;28;20967;-71
2023/08/23 11:17:38;;;;;;;8.20;3.90;;;27.30;56.50;;;;;;5077388;28;20479;-71
2023/08/23 11:20:24;;;;;;;5.73;3.80;;;27.40;46.80;;;;;;5073837;28;20452;-71
2023/08/23 11:23:11;;;;;;;4.90;3.83;;;27.50;46.90;;;;;;5078578;28;20615;-71
2023/08/23 11:25:58;;;;;;;5.10;4.00;;;27.60;47.90;;;;;;5077793;28;20606;-71
2023/08/23 11:28:44;;;;;;;5.20;3.87;;;27.90;50.40;;;;;;5072340;28;20594;-71
2023/08/23 11:31:30;;;;;;;5.10;3.70;;;28.00;39.60;;;;;;5073628;28;20444;-71
2023/08/23 11:34:16;;;;;;;6.93;4.10;;;28.00;46.20;;;;;;5075914;28;20864;-71
2023/08/23 11:37:06;;;;;;;7.23;4.07;;;28.20;44.90;;;;;;5076816;28;21038;-71
2023/08/23 11:40:00;;;;;;;12.13;4.40;;;28.30;43.30;;;;;;5080758;28;21147;-71
2023/08/23 11:42:46;;;;;;;12.20;4.60;;;28.30;39.10;;;;;;5077437;28;20479;-71
2023/08/23 11:45:37;;;;;;;10.23;4.50;;;28.10;37.90;;;;;;5083169;28;20449;-71
2023/08/23 11:48:24;;;;;;;8.20;4.80;;;27.90;42.30;;;;;;5079313;28;20810;-71
2023/08/23 11:51:09;;;;;;;7.33;4.00;;;27.90;38.10;;;;;;5081712;28;20441;-71
2023/08/23 11:53:55;;;;;;;6.97;4.20;;;27.90;38.10;;;;;;5083660;28;20461;-71
2023/08/23 11:56:43;;;;;;;6.03;4.13;;;27.70;46.30;;;;;;5080953;28;20461;-71
2023/08/23 11:59:29;;;;;;;8.90;3.97;;;27.80;41.10;;;;;;5082831;28;20445;-71
2023/08/23 12:02:15;;;;;;;6.07;3.63;;;27.90;38.90;;;;;;5081686;28;20472;-71
2023/08/23 12:05:00;;;;;;;5.93;3.20;;;28.00;37.40;;;;;;5084682;28;20479;-71
2023/08/23 12:07:46;;;;;;;5.03;2.70;;;28.10;33.10;;;;;;5082631;28;20440;-71
2023/08/23 12:10:32;;;;;;;7.00;3.53;;;28.20;29.40;;;;;;5086905;28;20440;-71
2023/08/23 12:13:19;;;;;;;9.80;3.73;;;28.30;28.00;;;;;;5084178;28;21233;-71
2023/08/23 12:16:05;;;;;;;6.00;3.10;;;28.40;29.40;;;;;;5088412;28;20456;-71
2023/08/23 12:18:50;;;;;;;7.87;3.67;;;28.60;30.20;;;;;;5083360;28;20581;-71
2023/08/23 12:21:36;;;;;;;5.93;3.70;;;28.60;30.40;;;;;;5085145;28;20444;-71
2023/08/23 12:24:22;;;;;;;7.37;3.53;;;28.60;29.80;;;;;;5085517;28;20610;-71
2023/08/23 12:27:08;;;;;;;6.17;3.20;;;28.80;33.60;;;;;;5080081;28;20928;-71
2023/08/23 12:29:55;;;;;;;5.00;3.50;;;28.70;29.40;;;;;;5076780;28;20989;-72
2023/08/23 12:32:41;;;;;;;7.43;3.37;;;28.80;30.50;;;;;;5082290;28;20989;-71
2023/08/23 12:35:26;;;;;;;6.70;3.80;;;28.80;26.40;;;;;;5075221;28;20441;-71
2023/08/23 12:38:12;;;;;;;4.50;2.73;;;28.90;26.70;;;;;;5081826;28;20445;-72
2023/08/23 12:40:58;;;;;;;7.30;3.13;;;29.10;26.10;;;;;;5076641;28;20515;-71
2023/08/23 12:43:45;;;;;;;5.07;3.00;;;29.10;24.60;;;;;;5080015;28;20472;-71
2023/08/23 12:46:32;;;;;;;7.53;3.23;;;29.30;27.40;;;;;;5079979;28;20450;-71
2023/08/23 12:49:17;;;;;;;5.00;3.17;;;29.20;24.70;;;;;;5082252;28;20454;-71
2023/08/23 12:52:03;;;;;;;4.60;2.63;;;29.30;26.10;;;;;;5078391;28;20878;-71
2023/08/23 12:54:49;;;;;;;5.63;2.70;;;29.40;23.20;;;;;;5076464;28;20445;-73
2023/08/23 12:57:34;;;;;;;7.13;3.37;;;29.50;26.40;;;;;;5084247;28;21072;-71
2023/08/23 13:00:20;;;;;;;6.70;4.10;;;29.60;24.60;;;;;;5079179;28;20499;-71
2023/08/23 13:03:07;;;;;;;3.40;2.80;;;29.70;24.20;;;;;;5081615;28;20470;-71
2023/08/23 13:05:53;;;;;;;8.50;3.40;;;29.70;26.00;;;;;;5079566;28;20447;-71
2023/08/23 13:08:40;;;;;;;6.67;3.50;;;29.90;26.50;;;;;;5081446;28;20446;-71
2023/08/23 13:11:25;;;;;;;6.77;2.50;;;30.40;24.70;;;;;;5082067;28;20458;-71
2023/08/23 13:14:11;;;;;;;8.23;2.50;;;30.00;20.00;;;;;;5080530;28;20459;-72
2023/08/23 13:16:57;;;;;;;6.60;2.73;;;29.90;22.10;;;;;;5082400;28;20449;-71
2023/08/23 13:19:44;;;;;;;4.40;2.63;;;29.50;20.50;;;;;;5076989;28;20441;-71
2023/08/23 13:22:30;;;;;;;3.90;2.87;;;29.80;22.10;;;;;;5082580;28;20950;-71
2023/08/23 13:25:17;;;;;;;6.23;2.70;;;30.00;21.10;;;;;;5084701;28;20470;-72
2023/08/23 13:28:04;;;;;;;8.53;3.07;;;30.30;21.50;;;;;;5076408;28;20457;-71
2023/08/23 13:30:50;;;;;;;4.63;2.80;;;30.50;22.10;;;;;;5078712;28;20441;-72
2023/08/23 13:33:36;;;;;;;10.43;3.00;;;30.80;20.00;;;;;;5077746;28;21060;-71
2023/08/23 13:36:23;;;;;;;8.00;3.10;;;30.90;21.10;;;;;;5078068;28;20497;-71
2023/08/23 13:39:10;;;;;;;9.47;2.90;;;31.10;21.80;;;;;;5078999;28;20582;-71
2023/08/23 13:41:55;;;;;;;6.43;2.67;;;31.20;21.10;;;;;;5079933;28;21296;-71
2023/08/23 13:44:41;;;;;;;3.63;2.33;;;31.10;17.00;;;;;;5075356;28;20638;-72
2023/08/23 13:47:27;;;;;;;3.50;2.23;;;30.80;18.20;;;;;;5076930;28;20437;-71
2023/08/23 13:50:13;;;;;;;7.10;2.30;;;30.90;17.60;;;;;;5080437;28;20529;-71
2023/08/23 13:53:00;;;;;;;6.50;2.87;;;30.60;16.80;;;;;;5081242;28;20461;-71
2023/08/23 13:55:46;;;;;;;4.47;2.77;;;30.80;17.60;;;;;;5077558;28;20824;-71
2023/08/23 13:58:32;;;;;;;6.70;2.77;;;31.10;17.30;;;;;;5081338;28;20532;-71
2023/08/23 14:01:17;;;;;;;5.07;2.67;;;31.30;16.50;;;;;;5081539;28;20853;-71
2023/08/23 14:04:03;;;;;;;4.03;2.30;;;31.60;17.90;;;;;;5081145;28;20497;-71
2023/08/23 14:06:49;;;;;;;6.73;2.50;;;31.60;17.20;;;;;;5078658;28;20799;-71
2023/08/23 14:09:36;;;;;;;7.23;2.53;;;31.70;17.70;;;;;;5077488;28;20973;-71
2023/08/23 14:12:22;;;;;;;4.37;2.30;;;31.70;17.20;;;;;;5079034;28;20461;-72
2023/08/23 14:15:08;;;;;;;5.10;2.30;;;31.80;16.40;;;;;;5076816;28;20586;-71
2023/08/23 14:17:54;;;;;;;4.23;2.13;;;31.80;16.50;;;;;;5083459;28;20443;-71
2023/08/23 14:20:39;;;;;;;4.97;3.20;;;31.80;14.90;;;;;;5076100;28;20475;-71
2023/08/23 14:23:25;;;;;;;6.33;2.40;;;31.80;15.40;;;;;;5081172;28;20513;-71